Time;durP1;ratioP1;P1;durP2;ratioP2;P2;SDS_P1;SDS_P2;PMS_P1;PMS_P2;Temp;Humidity;BMP_temperature;BMP_pressure;BME280_temperature;BME280_humidity;BME280_pressure;Samples;Min_cycle;Max_cycle;Signal;HPM_P1;HPM_P2
2023/06/25 00:00:22;;;;;;;17.90;12.00;;;;;;;;;;5134207;28;20429;-52
2023/06/25 00:02:49;;;;;;;14.87;11.10;;;20.30;99.90;;;;;;5133823;28;20456;-53
2023/06/25 00:05:17;;;;;;;20.67;11.30;;;20.30;99.90;;;;;;5134031;28;20429;-49
2023/06/25 00:07:44;;;;;;;16.00;11.50;;;20.20;99.90;;;;;;5133390;28;20495;-56
2023/06/25 00:10:12;;;;;;;15.33;11.60;;;;;;;;;;5129307;28;20465;-56
2023/06/25 00:12:40;;;;;;;15.30;11.30;;;20.10;99.90;;;;;;5134476;28;20456;-55
2023/06/25 00:15:10;;;;;;;15.60;11.80;;;19.80;99.90;;;;;;5137478;28;20481;-53
2023/06/25 00:17:38;;;;;;;14.37;11.63;;;;;;;;;;5136879;28;20439;-53
2023/06/25 00:20:07;;;;;;;17.63;12.00;;;20.00;99.90;;;;;;5137830;28;20754;-55
2023/06/25 00:22:34;;;;;;;16.67;13.00;;;19.90;99.90;;;;;;5138496;28;20420;-47
2023/06/25 00:25:01;;;;;;;24.07;13.70;;;19.80;99.90;;;;;;5137844;28;20425;-53
2023/06/25 00:27:28;;;;;;;16.93;12.33;;;20.00;99.90;;;;;;5137122;28;20448;-56
2023/06/25 00:30:00;;;;;;;17.23;10.80;;;20.60;99.90;;;;;;5137745;28;20444;-51
2023/06/25 00:32:28;;;;;;;17.30;12.07;;;20.30;99.90;;;;;;5138016;28;20486;-52
2023/06/25 00:34:58;;;;;;;16.50;11.50;;;20.10;99.90;;;;;;5137868;28;20464;-53
2023/06/25 00:37:25;;;;;;;14.17;10.23;;;;;;;;;;5137420;28;20467;-50
2023/06/25 00:39:52;;;;;;;16.83;10.70;;;20.20;99.90;;;;;;5137115;28;20420;-52
2023/06/25 00:42:19;;;;;;;12.63;10.27;;;20.60;99.90;;;;;;5135834;28;20445;-56
2023/06/25 00:44:46;;;;;;;16.47;10.60;;;20.00;99.90;;;;;;5137891;28;20468;-57
2023/06/25 00:47:16;;;;;;;16.03;11.17;;;20.20;99.90;;;;;;5138670;28;20466;-54
2023/06/25 00:49:45;;;;;;;15.67;10.27;;;20.30;99.90;;;;;;5130274;28;20456;-56
2023/06/25 00:52:13;;;;;;;15.70;10.60;;;20.40;99.90;;;;;;5130445;28;20453;-55
2023/06/25 00:54:42;;;;;;;21.00;11.80;;;20.10;99.90;;;;;;5138047;28;20464;-54
2023/06/25 00:57:10;;;;;;;14.10;10.13;;;;;;;;;;5138624;28;20448;-56
2023/06/25 00:59:40;;;;;;;15.03;10.50;;;20.10;99.90;;;;;;5137269;28;20464;-53
2023/06/25 01:02:15;;;;;;;16.23;11.30;;;20.20;99.90;;;;;;5135704;28;20440;-51
2023/06/25 01:04:57;;;;;;;13.70;10.03;;;20.10;99.90;;;;;;5138300;28;20436;-55
2023/06/25 01:07:25;;;;;;;17.23;10.17;;;;;;;;;;5127818;28;20429;-55
2023/06/25 01:09:52;;;;;;;16.13;10.50;;;20.40;99.90;;;;;;5134053;28;20452;-54
2023/06/25 01:12:19;;;;;;;13.67;10.50;;;20.30;99.90;;;;;;5137189;28;20471;-54
2023/06/25 01:14:48;;;;;;;14.17;10.40;;;20.80;99.90;;;;;;5138101;28;20421;-55
2023/06/25 01:17:16;;;;;;;15.07;9.73;;;;;;;;;;5138022;28;20466;-53
2023/06/25 01:19:45;;;;;;;16.23;11.70;;;20.30;99.90;;;;;;5138035;28;20435;-54
2023/06/25 01:22:14;;;;;;;24.90;12.10;;;20.30;99.90;;;;;;5137469;28;20455;-54
2023/06/25 01:24:44;;;;;;;14.50;10.53;;;20.30;99.90;;;;;;5136479;28;20464;-57
2023/06/25 01:27:12;;;;;;;18.60;10.93;;;20.00;99.90;;;;;;5137759;28;20429;-52
2023/06/25 01:29:39;;;;;;;13.90;9.80;;;20.40;99.90;;;;;;5138220;28;20445;-57
2023/06/25 01:32:07;;;;;;;17.50;10.27;;;20.30;99.90;;;;;;5137666;28;20456;-57
2023/06/25 01:34:34;;;;;;;18.60;11.30;;;20.40;99.90;;;;;;5137157;28;20469;-55
2023/06/25 01:37:01;;;;;;;24.00;11.67;;;20.20;99.90;;;;;;5137548;28;20473;-53
2023/06/25 01:39:28;;;;;;;15.43;9.30;;;;;;;;;;5136555;28;20475;-54
2023/06/25 01:41:56;;;;;;;18.50;11.93;;;20.20;99.90;;;;;;5137472;28;20491;-54
2023/06/25 01:44:28;;;;;;;16.23;10.47;;;20.30;99.90;;;;;;5137525;28;20441;-55
2023/06/25 01:46:56;;;;;;;16.57;11.37;;;20.20;99.90;;;;;;5136295;28;20425;-50
2023/06/25 01:49:24;;;;;;;17.37;11.30;;;20.10;99.90;;;;;;5137287;28;20447;-54
2023/06/25 01:51:51;;;;;;;14.87;10.70;;;;;;;;;;5136955;28;20469;-54
2023/06/25 01:54:18;;;;;;;12.40;9.10;;;;;;;;;;5137595;28;20466;-54
2023/06/25 01:56:45;;;;;;;15.20;9.87;;;20.30;99.90;;;;;;5135890;28;20484;-56
2023/06/25 01:59:14;;;;;;;13.30;9.13;;;20.10;99.90;;;;;;5134744;28;20856;-50
2023/06/25 02:01:41;;;;;;;17.37;10.27;;;;;;;;;;5137075;28;20460;-56
2023/06/25 02:04:08;;;;;;;13.00;9.50;;;20.40;99.90;;;;;;5136850;28;20405;-54
2023/06/25 02:06:34;;;;;;;14.80;8.23;;;20.10;99.90;;;;;;5137350;28;20448;-53
2023/06/25 02:09:02;;;;;;;11.60;8.10;;;;;;;;;;5135620;28;20479;-55
2023/06/25 02:11:29;;;;;;;12.10;8.77;;;;;;;;;;5136513;28;20463;-54
2023/06/25 02:13:56;;;;;;;14.30;8.00;;;;;;;;;;5136585;28;20479;-52
2023/06/25 02:16:25;;;;;;;9.90;7.60;;;20.20;99.90;;;;;;5136065;28;20465;-54
2023/06/25 02:18:53;;;;;;;14.10;10.70;;;20.40;99.90;;;;;;5136811;28;20449;-53
2023/06/25 02:21:19;;;;;;;12.00;8.03;;;20.50;99.90;;;;;;5135560;28;20444;-53
2023/06/25 02:23:46;;;;;;;13.27;7.80;;;20.30;99.90;;;;;;5136880;28;20459;-51
2023/06/25 02:26:13;;;;;;;12.43;8.50;;;20.20;99.90;;;;;;5136661;28;20460;-49
2023/06/25 02:28:40;;;;;;;10.57;8.17;;;20.50;99.90;;;;;;5136649;28;20444;-52
2023/06/25 02:31:08;;;;;;;13.80;7.97;;;;;;;;;;5135191;28;20465;-51
2023/06/25 02:33:37;;;;;;;10.40;8.60;;;20.20;99.90;;;;;;5136371;28;20475;-54
2023/06/25 02:36:04;;;;;;;10.77;7.70;;;20.40;99.90;;;;;;5135467;28;20975;-55
2023/06/25 02:38:31;;;;;;;12.43;8.60;;;20.20;99.90;;;;;;5135435;28;20792;-53
2023/06/25 02:40:58;;;;;;;11.50;7.80;;;;;;;;;;5135678;28;20440;-55
2023/06/25 02:43:25;;;;;;;14.93;8.13;;;20.70;99.90;;;;;;5135398;28;20444;-55
2023/06/25 02:45:52;;;;;;;8.80;7.90;;;;;;;;;;5136051;28;20428;-52
2023/06/25 02:48:19;;;;;;;12.07;7.43;;;;;;;;;;5135499;28;20496;-49
2023/06/25 02:50:47;;;;;;;11.57;8.00;;;20.50;99.90;;;;;;5136325;28;20471;-49
2023/06/25 02:53:14;;;;;;;9.47;6.90;;;20.30;99.90;;;;;;5136404;28;20460;-53
2023/06/25 02:55:41;;;;;;;11.60;8.23;;;;;;;;;;5136440;28;20469;-55
2023/06/25 02:58:08;;;;;;;11.87;7.73;;;20.50;99.90;;;;;;5135726;28;20476;-54
2023/06/25 03:00:35;;;;;;;8.87;7.13;;;20.30;99.90;;;;;;5136548;28;20436;-52
2023/06/25 03:03:02;;;;;;;12.57;7.70;;;;;;;;;;5136061;28;20420;-56
2023/06/25 03:05:29;;;;;;;9.30;7.90;;;20.40;99.90;;;;;;5135931;28;20459;-50
2023/06/25 03:07:58;;;;;;;13.20;8.23;;;20.50;99.90;;;;;;5136020;28;20447;-51
2023/06/25 03:10:27;;;;;;;10.10;7.90;;;20.50;99.90;;;;;;5133706;28;20505;-55
2023/06/25 03:12:54;;;;;;;13.57;7.70;;;20.90;99.90;;;;;;5135783;28;20471;-47
2023/06/25 03:15:21;;;;;;;8.70;6.03;;;20.50;99.90;;;;;;5135850;28;20449;-49
2023/06/25 03:17:48;;;;;;;10.73;8.07;;;20.70;99.90;;;;;;5135549;28;20468;-52
2023/06/25 03:20:15;;;;;;;9.40;6.70;;;20.70;99.90;;;;;;5135353;28;20452;-51
2023/06/25 03:22:43;;;;;;;12.93;7.93;;;;;;;;;;5135794;28;20424;-50
2023/06/25 03:25:13;;;;;;;8.30;7.40;;;20.40;99.90;;;;;;5135539;28;20441;-49
2023/06/25 03:27:40;;;;;;;9.27;7.27;;;20.40;99.90;;;;;;5132905;28;20424;-55
2023/06/25 03:30:08;;;;;;;12.67;8.70;;;20.60;99.90;;;;;;5135561;28;20444;-52
2023/06/25 03:32:35;;;;;;;10.67;7.70;;;;;;;;;;5135903;28;20472;-51
2023/06/25 03:35:02;;;;;;;9.37;7.27;;;20.40;99.90;;;;;;5135179;28;20441;-50
2023/06/25 03:37:29;;;;;;;13.60;6.90;;;21.20;99.90;;;;;;5135922;28;20567;-49
2023/06/25 03:39:56;;;;;;;7.50;6.03;;;20.80;99.90;;;;;;5135591;28;20432;-50
2023/06/25 03:42:24;;;;;;;8.57;6.50;;;20.60;99.90;;;;;;5136162;28;20461;-48
2023/06/25 03:44:54;;;;;;;7.70;6.30;;;20.60;99.90;;;;;;5135927;28;20476;-50
2023/06/25 03:47:22;;;;;;;8.70;6.20;;;20.60;99.90;;;;;;5139986;28;20429;-48
2023/06/25 03:49:49;;;;;;;9.67;6.90;;;20.60;99.90;;;;;;5139257;28;20464;-48
2023/06/25 03:52:18;;;;;;;8.23;6.70;;;20.60;99.90;;;;;;5139801;28;20435;-46
2023/06/25 03:54:45;;;;;;;7.37;6.20;;;;;;;;;;5139651;28;20500;-48
2023/06/25 03:57:12;;;;;;;12.03;6.43;;;22.00;99.90;;;;;;5139432;28;20460;-44
2023/06/25 03:59:40;;;;;;;11.17;6.53;;;20.90;99.90;;;;;;5140008;28;20459;-49
2023/06/25 04:02:09;;;;;;;12.73;6.60;;;20.70;99.90;;;;;;5139567;28;20501;-54
2023/06/25 04:04:36;;;;;;;7.50;6.33;;;21.10;99.90;;;;;;5139972;28;20420;-52
2023/06/25 04:07:03;;;;;;;10.90;7.07;;;20.60;99.90;;;;;;5139296;28;20468;-51
2023/06/25 04:09:30;;;;;;;8.57;6.73;;;;;;;;;;5139356;28;20468;-48
2023/06/25 04:11:59;;;;;;;9.00;6.60;;;;;;;;;;5139011;28;20528;-54
2023/06/25 04:14:26;;;;;;;10.23;6.83;;;20.80;99.90;;;;;;5138823;28;20480;-50
2023/06/25 04:16:54;;;;;;;7.43;6.60;;;21.00;99.90;;;;;;5139249;28;20507;-50
2023/06/25 04:19:21;;;;;;;8.00;6.53;;;20.80;99.90;;;;;;5137471;28;20466;-53
2023/06/25 04:21:48;;;;;;;10.07;6.50;;;;;;;;;;5138489;28;20432;-52
2023/06/25 04:24:15;;;;;;;7.33;6.40;;;20.70;99.90;;;;;;5139154;28;20488;-56
2023/06/25 04:26:42;;;;;;;8.80;7.30;;;21.40;99.90;;;;;;5138789;28;20468;-53
2023/06/25 04:29:09;;;;;;;10.10;6.90;;;;;;;;;;5138502;28;20468;-54
2023/06/25 04:31:36;;;;;;;9.60;6.20;;;21.00;99.90;;;;;;5139184;28;20460;-55
2023/06/25 04:34:04;;;;;;;10.40;7.20;;;21.10;99.90;;;;;;5137781;28;20474;-52
2023/06/25 04:36:31;;;;;;;10.50;6.93;;;21.00;99.90;;;;;;5138493;28;20444;-55
2023/06/25 04:38:58;;;;;;;8.80;6.07;;;20.90;99.90;;;;;;5138876;28;20447;-56
2023/06/25 04:41:25;;;;;;;8.83;6.50;;;;;;;;;;5138434;28;20467;-54
2023/06/25 04:43:52;;;;;;;7.87;7.07;;;;;;;;;;5138700;28;20429;-55
2023/06/25 04:46:19;;;;;;;7.90;6.13;;;;;;;;;;5138331;28;20471;-55
2023/06/25 04:48:47;;;;;;;9.83;6.33;;;21.00;99.90;;;;;;5138715;28;20452;-56
2023/06/25 04:51:15;;;;;;;7.83;6.43;;;21.10;99.90;;;;;;5138331;28;20468;-53
2023/06/25 04:53:42;;;;;;;7.50;5.97;;;21.70;99.90;;;;;;5138393;28;20488;-54
2023/06/25 04:56:10;;;;;;;10.60;6.70;;;;;;;;;;5138356;28;20440;-56
2023/06/25 04:58:37;;;;;;;7.97;6.30;;;20.90;99.90;;;;;;5136967;28;20464;-54
2023/06/25 05:01:04;;;;;;;6.50;5.87;;;21.10;99.90;;;;;;5138215;28;20467;-51
2023/06/25 05:03:31;;;;;;;8.77;6.47;;;;;;;;;;5138258;28;20457;-53
2023/06/25 05:05:58;;;;;;;9.23;6.27;;;21.20;99.90;;;;;;5137657;28;20438;-53
2023/06/25 05:08:27;;;;;;;7.47;6.00;;;20.90;99.90;;;;;;5137282;28;20472;-50
2023/06/25 05:10:53;;;;;;;7.20;6.50;;;21.50;99.90;;;;;;5137290;28;20423;-51
2023/06/25 05:13:20;;;;;;;10.33;7.13;;;21.30;99.90;;;;;;5137944;28;20479;-51
2023/06/25 05:15:47;;;;;;;7.17;6.20;;;21.40;99.90;;;;;;5137734;28;20471;-55
2023/06/25 05:18:14;;;;;;;8.20;5.63;;;;;;;;;;5138210;28;20479;-55
2023/06/25 05:20:41;;;;;;;9.00;6.33;;;21.60;99.90;;;;;;5137561;28;20440;-52
2023/06/25 05:23:11;;;;;;;8.90;7.17;;;21.50;99.90;;;;;;5137159;28;20476;-52
2023/06/25 05:25:39;;;;;;;8.30;6.80;;;21.90;99.90;;;;;;5137796;28;20951;-60
2023/06/25 05:28:08;;;;;;;6.97;6.00;;;21.50;99.90;;;;;;5137440;28;20452;-52
2023/06/25 05:30:36;;;;;;;9.10;6.43;;;21.50;99.90;;;;;;5137735;28;20457;-54
2023/06/25 05:33:03;;;;;;;5.83;5.20;;;;;;;;;;5137813;28;20416;-53
2023/06/25 05:35:30;;;;;;;8.00;5.53;;;21.50;99.90;;;;;;5137494;28;20432;-53
2023/06/25 05:37:57;;;;;;;6.33;5.10;;;21.80;99.90;;;;;;5137293;28;20464;-54
2023/06/25 05:40:24;;;;;;;6.50;5.50;;;22.50;99.90;;;;;;5137322;28;20449;-57
2023/06/25 05:42:54;;;;;;;7.77;5.20;;;21.80;99.90;;;;;;5137533;28;20464;-55
2023/06/25 05:45:21;;;;;;;6.77;5.57;;;;;;;;;;5136852;28;20451;-54
2023/06/25 05:47:48;;;;;;;11.40;5.67;;;;;;;;;;5136897;28;20468;-56
2023/06/25 05:50:15;;;;;;;6.87;5.50;;;22.30;99.90;;;;;;5137729;28;20429;-53
2023/06/25 05:52:43;;;;;;;5.63;4.73;;;22.00;99.90;;;;;;5137507;28;20473;-54
2023/06/25 05:55:11;;;;;;;9.90;5.80;;;22.30;99.90;;;;;;5135062;28;20528;-56
2023/06/25 05:57:38;;;;;;;8.20;5.80;;;22.20;99.90;;;;;;5136943;28;20487;-53
2023/06/25 06:00:09;;;;;;;8.97;5.17;;;22.30;99.90;;;;;;5135760;28;20483;-56
2023/06/25 06:02:36;;;;;;;6.00;5.07;;;;;;;;;;5137168;28;20692;-56
2023/06/25 06:05:03;;;;;;;9.80;7.40;;;22.10;99.90;;;;;;5136870;28;20520;-54
2023/06/25 06:07:30;;;;;;;7.83;4.90;;;22.40;99.90;;;;;;5137512;28;20529;-54
2023/06/25 06:09:59;;;;;;;6.43;5.47;;;22.40;99.90;;;;;;5136059;28;20484;-53
2023/06/25 06:12:27;;;;;;;7.70;5.13;;;;;;;;;;5136505;28;20493;-53
2023/06/25 06:14:53;;;;;;;8.00;5.07;;;22.50;99.90;;;;;;5136357;28;20433;-52
2023/06/25 06:17:22;;;;;;;6.70;5.40;;;22.40;99.90;;;;;;5138088;27;20483;-51
2023/06/25 06:19:49;;;;;;;5.97;4.23;;;;;;;;;;5144535;27;20505;-53
2023/06/25 06:22:17;;;;;;;7.40;4.83;;;22.30;99.90;;;;;;5131750;27;20634;-55
2023/06/25 06:24:44;;;;;;;8.73;5.10;;;;;;;;;;5144368;27;20976;-54
2023/06/25 06:27:11;;;;;;;5.87;5.23;;;22.60;99.90;;;;;;5141214;27;20475;-54
2023/06/25 06:29:38;;;;;;;6.87;5.40;;;22.90;99.90;;;;;;5140825;27;20416;-51
2023/06/25 06:32:06;;;;;;;6.17;5.57;;;23.00;99.90;;;;;;5136471;27;20432;-55
2023/06/25 06:34:35;;;;;;;10.80;4.57;;;23.20;99.90;;;;;;5139927;27;20455;-56
2023/06/25 06:37:02;;;;;;;10.20;5.20;;;;;;;;;;5152403;27;20543;-55
2023/06/25 06:39:29;;;;;;;7.83;6.23;;;23.60;99.90;;;;;;5154064;27;20452;-52
2023/06/25 06:41:56;;;;;;;11.00;6.47;;;;;;;;;;5155142;27;20495;-55
2023/06/25 06:44:23;;;;;;;8.17;6.30;;;24.20;99.90;;;;;;5150598;27;20456;-55
2023/06/25 06:46:50;;;;;;;9.00;7.63;;;24.20;99.90;;;;;;5146451;27;20436;-54
2023/06/25 06:49:19;;;;;;;8.03;6.40;;;24.20;99.90;;;;;;5142961;27;20491;-49
2023/06/25 06:51:47;;;;;;;8.47;6.87;;;24.00;99.90;;;;;;5137896;27;20463;-56
2023/06/25 06:54:16;;;;;;;8.73;7.00;;;24.90;99.90;;;;;;5136470;27;20449;-53
2023/06/25 06:56:43;;;;;;;7.40;6.20;;;24.50;99.90;;;;;;5137721;27;20506;-50
2023/06/25 06:59:10;;;;;;;10.87;6.80;;;24.50;99.90;;;;;;5141947;27;20491;-51
2023/06/25 07:01:37;;;;;;;6.83;5.43;;;24.60;99.90;;;;;;5142113;27;20497;-49
2023/06/25 07:04:04;;;;;;;6.73;5.57;;;24.60;99.90;;;;;;5144709;27;20927;-49
2023/06/25 07:06:31;;;;;;;7.60;5.70;;;24.70;99.90;;;;;;5149101;27;20448;-50
2023/06/25 07:09:00;;;;;;;7.63;5.67;;;25.50;99.90;;;;;;5146854;27;20550;-57
2023/06/25 07:11:27;;;;;;;9.00;6.70;;;;;;;;;;5140378;27;20451;-48
2023/06/25 07:13:54;;;;;;;8.93;5.90;;;;;;;;;;5145077;27;20495;-55
2023/06/25 07:16:21;;;;;;;6.80;5.17;;;25.50;99.90;;;;;;5146740;27;20451;-55
2023/06/25 07:18:48;;;;;;;7.00;4.80;;;26.00;99.90;;;;;;5148662;27;20514;-56
2023/06/25 07:21:15;;;;;;;4.50;4.10;;;;;;;;;;5146147;27;20471;-57
2023/06/25 07:23:42;;;;;;;8.93;4.90;;;27.30;99.90;;;;;;5142805;27;20527;-56
2023/06/25 07:26:11;;;;;;;5.73;4.80;;;;;;;;;;5146751;27;20447;-55
2023/06/25 07:28:38;;;;;;;9.53;5.07;;;;;;;;;;5146758;28;20472;-53
2023/06/25 07:31:04;;;;;;;5.60;5.00;;;27.20;99.90;;;;;;5121729;28;20605;-55
2023/06/25 07:33:31;;;;;;;5.00;4.40;;;28.30;99.90;;;;;;5122769;28;20504;-53
2023/06/25 07:35:58;;;;;;;6.27;5.67;;;28.00;99.90;;;;;;5125573;28;20472;-56
2023/06/25 07:38:25;;;;;;;6.70;5.20;;;28.30;99.90;;;;;;5125564;28;20543;-57
2023/06/25 07:40:52;;;;;;;5.73;5.00;;;28.20;99.90;;;;;;5125185;28;20508;-55
2023/06/25 07:43:20;;;;;;;7.17;6.20;;;28.70;99.90;;;;;;5125052;28;20461;-54
2023/06/25 07:45:47;;;;;;;5.67;4.93;;;28.10;99.90;;;;;;5124893;28;20440;-54
2023/06/25 07:48:14;;;;;;;10.23;5.20;;;27.80;99.90;;;;;;5124451;28;20544;-56
2023/06/25 07:50:41;;;;;;;5.27;4.63;;;27.60;99.90;;;;;;5124781;28;20514;-56
2023/06/25 07:53:08;;;;;;;6.20;5.07;;;;;;;;;;5124660;28;20548;-56
2023/06/25 07:55:40;;;;;;;5.70;4.90;;;28.20;99.90;;;;;;5125008;28;20861;-54
2023/06/25 07:58:07;;;;;;;5.60;4.50;;;28.20;99.90;;;;;;5124802;28;20492;-55
2023/06/25 08:00:36;;;;;;;8.20;5.10;;;28.70;99.90;;;;;;5139027;28;20555;-57
2023/06/25 08:03:03;;;;;;;5.50;5.00;;;28.90;99.90;;;;;;5145315;28;20516;-54
2023/06/25 08:05:30;;;;;;;5.93;5.33;;;28.40;99.90;;;;;;5143610;28;20535;-57
2023/06/25 08:07:57;;;;;;;6.30;5.20;;;;;;;;;;5145508;28;20444;-54
2023/06/25 08:10:24;;;;;;;5.80;5.20;;;28.70;99.90;;;;;;5145811;28;20467;-57
2023/06/25 08:12:51;;;;;;;23.63;18.90;;;28.50;99.90;;;;;;5146091;28;20446;-54
2023/06/25 08:15:21;;;;;;;7.10;6.50;;;28.20;99.90;;;;;;5150551;28;20467;-54
2023/06/25 08:17:49;;;;;;;5.73;5.13;;;28.00;96.00;;;;;;5144575;28;20475;-54
2023/06/25 08:20:16;;;;;;;4.80;4.20;;;28.30;99.90;;;;;;5144794;28;20439;-55
2023/06/25 08:22:43;;;;;;;5.57;4.50;;;;;;;;;;5144361;28;20432;-54
2023/06/25 08:25:20;;;;;;;6.50;4.90;;;27.60;99.90;;;;;;5145865;28;20439;-56
2023/06/25 08:27:47;;;;;;;6.20;5.23;;;27.60;99.90;;;;;;5145524;28;20925;-54
2023/06/25 08:30:14;;;;;;;7.20;5.07;;;27.50;99.90;;;;;;5144580;28;20530;-55
2023/06/25 08:32:44;;;;;;;6.50;5.07;;;27.50;99.90;;;;;;5146708;27;20439;-57
2023/06/25 08:35:13;;;;;;;7.30;4.90;;;27.60;99.90;;;;;;5157492;27;20460;-55
2023/06/25 08:37:40;;;;;;;6.20;4.67;;;;;;;;;;5149518;27;20778;-55
2023/06/25 08:40:09;;;;;;;4.67;4.20;;;;;;;;;;5149310;27;20457;-56
2023/06/25 08:42:36;;;;;;;7.30;5.30;;;27.40;97.90;;;;;;5149100;27;20460;-55
2023/06/25 08:45:04;;;;;;;5.60;4.50;;;27.50;98.10;;;;;;5149274;27;20444;-56
2023/06/25 08:47:40;;;;;;;6.27;4.60;;;27.60;98.50;;;;;;5149787;27;20477;-56
2023/06/25 08:50:08;;;;;;;6.70;4.90;;;27.70;99.90;;;;;;5149125;27;20454;-55
2023/06/25 08:52:38;;;;;;;6.57;5.00;;;27.90;99.90;;;;;;5149870;27;20524;-55
2023/06/25 08:55:08;;;;;;;6.10;5.13;;;28.20;99.90;;;;;;5149636;27;20432;-55
2023/06/25 08:57:36;;;;;;;5.67;4.53;;;27.90;99.90;;;;;;5149039;27;20483;-53
2023/06/25 09:00:03;;;;;;;6.00;5.17;;;28.20;99.90;;;;;;5141486;27;20537;-56
2023/06/25 09:02:30;;;;;;;6.30;5.20;;;;;;;;;;5141933;27;20470;-55
2023/06/25 09:05:05;;;;;;;5.70;5.10;;;28.50;99.90;;;;;;5131873;27;20472;-55
2023/06/25 09:07:34;;;;;;;6.33;4.63;;;28.80;99.90;;;;;;5133376;28;20924;-57
2023/06/25 09:10:02;;;;;;;10.93;9.83;;;28.70;99.90;;;;;;5132005;28;20458;-52
2023/06/25 09:12:32;;;;;;;6.60;5.80;;;;;;;;;;5140003;27;20451;-56
2023/06/25 09:15:00;;;;;;;6.70;6.00;;;;;;;;;;5154630;27;20455;-54
2023/06/25 09:17:27;;;;;;;5.80;5.20;;;;;;;;;;5154811;27;20466;-56
2023/06/25 09:19:54;;;;;;;6.00;5.40;;;29.00;99.90;;;;;;5148061;27;20465;-57
2023/06/25 09:22:21;;;;;;;6.20;5.20;;;;;;;;;;5149495;27;20494;-57
2023/06/25 09:24:49;;;;;;;6.20;5.00;;;29.10;99.90;;;;;;5146785;27;20456;-52
2023/06/25 09:27:20;;;;;;;6.23;5.30;;;29.00;99.90;;;;;;5148222;27;20443;-56
2023/06/25 09:29:47;;;;;;;7.10;5.20;;;29.10;99.90;;;;;;5141569;27;20484;-57
2023/06/25 09:32:14;;;;;;;6.07;5.10;;;29.60;99.90;;;;;;5127918;28;20449;-56
2023/06/25 09:34:41;;;;;;;5.10;4.27;;;;;;;;;;5127278;28;20448;-56
2023/06/25 09:37:09;;;;;;;6.63;5.07;;;29.40;99.90;;;;;;5126580;28;20445;-56
2023/06/25 09:39:38;;;;;;;6.93;5.87;;;29.20;94.50;;;;;;5126378;28;20519;-53
2023/06/25 09:42:08;;;;;;;6.07;5.10;;;29.40;99.90;;;;;;5129660;28;20467;-54
2023/06/25 09:44:38;;;;;;;7.53;5.30;;;29.60;99.90;;;;;;5128963;28;20446;-57
2023/06/25 09:47:08;;;;;;;7.30;6.07;;;29.50;92.80;;;;;;5125598;28;20457;-57
2023/06/25 09:49:36;;;;;;;8.97;6.60;;;30.70;99.90;;;;;;5130228;28;20476;-57
2023/06/25 09:52:08;;;;;;;9.80;6.47;;;30.90;91.70;;;;;;5133874;28;20464;-57
2023/06/25 09:54:39;;;;;;;7.00;5.40;;;31.30;99.90;;;;;;5133520;28;20476;-54
2023/06/25 09:57:10;;;;;;;9.00;5.73;;;31.10;94.40;;;;;;5133823;28;20456;-55
2023/06/25 09:59:38;;;;;;;6.50;5.87;;;31.50;99.90;;;;;;5139131;27;20468;-53
2023/06/25 10:02:07;;;;;;;6.77;5.23;;;31.60;99.90;;;;;;5154601;27;20444;-54
2023/06/25 10:04:35;;;;;;;9.70;4.87;;;31.30;99.90;;;;;;5148771;27;20467;-55
2023/06/25 10:07:03;;;;;;;5.33;4.83;;;31.80;99.90;;;;;;5145675;27;20471;-54
2023/06/25 10:09:30;;;;;;;6.20;5.60;;;31.70;99.90;;;;;;5144951;27;20515;-56
2023/06/25 10:11:58;;;;;;;7.83;5.07;;;31.60;99.90;;;;;;5137294;27;20444;-57
2023/06/25 10:14:26;;;;;;;7.57;4.90;;;;;;;;;;5142734;27;20460;-54
2023/06/25 10:16:55;;;;;;;6.10;5.37;;;32.30;81.50;;;;;;5145394;27;20451;-55
2023/06/25 10:19:23;;;;;;;5.33;4.73;;;32.50;99.90;;;;;;5145528;27;20590;-53
2023/06/25 10:22:00;;;;;;;6.37;5.00;;;32.70;99.90;;;;;;5147819;27;20440;-54
2023/06/25 10:24:27;;;;;;;6.60;5.27;;;;;;;;;;5154726;27;20535;-54
2023/06/25 10:26:54;;;;;;;6.47;5.30;;;32.80;97.50;;;;;;5154775;27;20428;-52
2023/06/25 10:29:21;;;;;;;6.00;5.00;;;33.40;95.00;;;;;;5151432;27;20464;-53
2023/06/25 10:31:50;;;;;;;5.20;4.20;;;33.60;95.90;;;;;;5134037;28;20532;-54
2023/06/25 10:34:20;;;;;;;5.83;4.73;;;33.80;96.00;;;;;;5133019;28;20465;-54
2023/06/25 10:36:50;;;;;;;9.40;5.10;;;33.20;96.60;;;;;;5133523;28;20436;-56
2023/06/25 10:39:18;;;;;;;6.20;5.27;;;;;;;;;;5133084;28;20531;-55
2023/06/25 10:41:48;;;;;;;5.70;5.10;;;33.20;72.20;;;;;;5128323;28;20520;-56
2023/06/25 10:44:15;;;;;;;5.20;4.73;;;33.00;95.90;;;;;;5122560;28;20474;-56
2023/06/25 10:46:42;;;;;;;6.60;5.37;;;33.00;99.90;;;;;;5123492;28;20457;-58
2023/06/25 10:49:11;;;;;;;5.13;4.57;;;32.60;98.00;;;;;;5122951;28;20476;-56
2023/06/25 10:51:39;;;;;;;5.40;4.90;;;32.30;99.90;;;;;;5126124;28;20510;-56
2023/06/25 10:54:06;;;;;;;4.90;4.50;;;32.40;98.30;;;;;;5132551;28;20437;-57
2023/06/25 10:56:34;;;;;;;5.20;4.70;;;32.20;76.70;;;;;;5124427;28;20495;-56
2023/06/25 10:59:01;;;;;;;6.80;5.00;;;32.10;99.90;;;;;;5125487;28;20476;-56
2023/06/25 11:01:35;;;;;;;5.40;4.50;;;31.90;97.50;;;;;;5125033;28;20440;-58
2023/06/25 11:04:01;;;;;;;6.40;4.47;;;31.50;99.90;;;;;;5123430;28;20744;-57
2023/06/25 11:06:29;;;;;;;7.07;5.43;;;31.30;98.50;;;;;;5121309;28;20516;-56
2023/06/25 11:09:00;;;;;;;5.97;5.00;;;31.10;99.90;;;;;;5122699;28;20441;-56
2023/06/25 11:11:27;;;;;;;7.33;4.90;;;;;;;;;;5122909;28;20896;-56
2023/06/25 11:13:54;;;;;;;7.57;4.63;;;30.90;99.90;;;;;;5131528;28;20464;-55
2023/06/25 11:16:21;;;;;;;5.27;4.77;;;29.90;97.40;;;;;;5127279;28;20471;-60
2023/06/25 11:18:51;;;;;;;5.37;4.70;;;30.00;84.70;;;;;;5123055;28;20535;-56
2023/06/25 11:21:18;;;;;;;7.40;5.63;;;29.50;93.30;;;;;;5122734;28;20467;-56
2023/06/25 11:23:45;;;;;;;5.83;4.50;;;29.80;99.90;;;;;;5129840;28;20563;-56
2023/06/25 11:26:17;;;;;;;6.90;5.17;;;29.60;99.90;;;;;;5129702;28;20479;-57
2023/06/25 11:28:45;;;;;;;4.60;3.97;;;29.40;99.90;;;;;;5123282;28;20429;-57
2023/06/25 11:31:12;;;;;;;4.50;4.03;;;29.50;99.90;;;;;;5123291;28;20492;-53
2023/06/25 11:33:39;;;;;;;5.00;4.53;;;;;;;;;;5122715;28;20523;-56
2023/06/25 11:36:09;;;;;;;5.07;4.30;;;29.50;99.90;;;;;;5123484;28;20877;-54
2023/06/25 11:38:36;;;;;;;5.97;4.60;;;29.40;94.90;;;;;;5123202;28;20480;-54
2023/06/25 11:41:03;;;;;;;5.23;4.23;;;29.30;99.90;;;;;;5130510;28;20546;-55
2023/06/25 11:43:33;;;;;;;7.60;6.00;;;29.50;88.50;;;;;;5123326;28;20448;-56
2023/06/25 11:46:02;;;;;;;8.13;5.03;;;29.80;99.90;;;;;;5123398;28;20928;-53
2023/06/25 11:48:29;;;;;;;6.47;4.60;;;29.70;99.90;;;;;;5123810;28;20436;-53
2023/06/25 11:51:04;;;;;;;5.33;4.10;;;29.80;99.90;;;;;;5123251;28;20456;-55
2023/06/25 11:53:31;;;;;;;5.80;4.90;;;29.80;99.90;;;;;;5121266;28;20458;-50
2023/06/25 11:55:59;;;;;;;11.07;6.60;;;29.90;99.90;;;;;;5122671;28;20480;-53
2023/06/25 11:58:27;;;;;;;5.73;5.07;;;;;;;;;;5123471;28;20496;-56
2023/06/25 12:00:55;;;;;;;6.70;5.50;;;29.50;99.90;;;;;;5138813;28;20479;-52
2023/06/25 12:03:22;;;;;;;6.30;5.60;;;29.50;99.90;;;;;;5143771;28;20498;-57
2023/06/25 12:05:49;;;;;;;6.80;5.40;;;;;;;;;;5143968;28;20966;-57
2023/06/25 12:08:16;;;;;;;6.10;4.97;;;;;;;;;;5147976;27;20511;-56
2023/06/25 12:10:43;;;;;;;5.40;4.90;;;29.40;99.90;;;;;;5148476;27;20499;-58
2023/06/25 12:13:10;;;;;;;5.23;4.43;;;;;;;;;;5150127;27;20510;-56
2023/06/25 12:15:37;;;;;;;5.37;4.87;;;29.70;99.90;;;;;;5149223;27;20462;-57
2023/06/25 12:18:05;;;;;;;4.83;4.43;;;29.40;99.90;;;;;;5148651;27;20471;-59
2023/06/25 12:20:32;;;;;;;6.40;5.20;;;29.70;99.90;;;;;;5148674;27;20516;-57
2023/06/25 12:23:00;;;;;;;6.23;5.00;;;29.70;96.90;;;;;;5148728;27;20936;-57
2023/06/25 12:25:27;;;;;;;5.90;5.13;;;;;;;;;;5148498;27;20443;-58
2023/06/25 12:27:54;;;;;;;5.20;4.70;;;;;;;;;;5146455;27;20482;-57
2023/06/25 12:30:22;;;;;;;7.27;4.90;;;29.00;99.90;;;;;;5136342;27;20436;-54
2023/06/25 12:32:49;;;;;;;5.80;5.17;;;28.80;99.90;;;;;;5127176;28;20467;-56
2023/06/25 12:35:18;;;;;;;8.63;4.83;;;29.00;99.90;;;;;;5126495;28;20504;-53
2023/06/25 12:37:45;;;;;;;7.57;5.73;;;;;;;;;;5126882;28;20552;-55
2023/06/25 12:40:12;;;;;;;5.43;4.93;;;28.30;99.90;;;;;;5132639;28;20494;-53
2023/06/25 12:42:39;;;;;;;5.60;5.10;;;28.20;99.90;;;;;;5130809;28;20460;-56
2023/06/25 12:45:07;;;;;;;5.70;4.97;;;27.60;99.90;;;;;;5130331;28;20452;-56
2023/06/25 12:47:34;;;;;;;7.13;4.70;;;27.60;99.90;;;;;;5134203;28;20464;-57
2023/06/25 12:50:01;;;;;;;11.00;4.73;;;27.40;99.90;;;;;;5126144;28;20456;-54
2023/06/25 12:52:31;;;;;;;6.80;4.20;;;27.90;99.90;;;;;;5132025;28;20448;-53
2023/06/25 12:54:58;;;;;;;6.30;5.00;;;27.40;99.90;;;;;;5136159;28;20429;-50
2023/06/25 12:57:26;;;;;;;9.30;5.73;;;27.40;99.90;;;;;;5130594;28;20495;-57
2023/06/25 12:59:53;;;;;;;4.90;4.40;;;27.00;99.90;;;;;;5129416;28;20481;-54
2023/06/25 13:02:20;;;;;;;6.17;4.83;;;27.30;99.90;;;;;;5136637;28;20464;-55
2023/06/25 13:04:47;;;;;;;5.77;4.70;;;27.10;99.90;;;;;;5132936;28;20827;-54
2023/06/25 13:07:14;;;;;;;7.33;5.10;;;27.10;99.90;;;;;;5134106;28;20444;-57